Tuckerton, New Jersey
Current Conditions -  °F | °C
As of 12:54 PM on Monday 22 Dec 2014 (Local Time) from KACY Reporting Station
Overcast Overcast  
Wind Chill: 41°   Ceiling: 5000
Heat Index: 45°   Visibility: 10mi
Dew Point: 38°   Wind: 8mph
Humidity: 76%   Direction: 60°ENE
Pressure: 30.22"   Gusts: NA
Location:  39.6°N, 74.34°W
Report Text: KACY 221754Z 06007KT 10SM OVC050 07/03 A3022 RMK AO2 SLP233 T00720033 10072 21061 58030
Loading
Personal Weather Stations






























Interactive Weather Map New forecast layout! Learn more

10-Day Weather Forecast

Advertisements
Track Severe Weather on mobile